createdAt,value
2022-12-20T00:02:06.654Z,27.76
2022-12-20T00:05:15.715Z,26.54
2022-12-20T00:08:21.337Z,26.64
2022-12-20T00:11:29.168Z,25.96
2022-12-20T00:14:35.125Z,25.43
2022-12-20T00:17:41.561Z,26.03
2022-12-20T00:20:49.767Z,25.28
2022-12-20T00:23:58.390Z,30.30
2022-12-20T00:27:03.975Z,25.77
2022-12-20T00:30:12.384Z,25.24
2022-12-20T00:33:17.899Z,25.36
2022-12-20T00:36:30.047Z,24.83
2022-12-20T00:39:35.617Z,25.10
2022-12-20T00:42:41.918Z,24.48
2022-12-20T00:45:47.442Z,23.46
2022-12-20T00:48:54.371Z,24.08
2022-12-20T00:52:02.495Z,23.39
2022-12-20T00:55:09.335Z,23.49
2022-12-20T00:58:16.728Z,23.39
2022-12-20T01:01:26.503Z,24.05
2022-12-20T01:04:32.206Z,23.99
2022-12-20T01:07:41.253Z,24.78
2022-12-20T01:10:46.727Z,23.21
2022-12-20T01:13:57.492Z,25.03
2022-12-20T01:17:04.924Z,23.47
2022-12-20T01:20:12.231Z,23.59
2022-12-20T01:23:20.263Z,24.38
2022-12-20T01:26:30.349Z,23.99
2022-12-20T01:29:35.808Z,24.51
2022-12-20T01:32:42.192Z,25.01
2022-12-20T01:35:59.738Z,25.70
2022-12-20T01:39:13.944Z,24.93
2022-12-20T01:42:19.777Z,25.36
2022-12-20T01:45:33.150Z,24.44
2022-12-20T01:48:39.448Z,25.36
2022-12-20T01:51:53.348Z,27.85
2022-12-20T01:55:13.913Z,26.53
2022-12-20T01:58:24.467Z,26.48
2022-12-20T02:01:30.273Z,26.78
2022-12-20T02:04:36.823Z,26.31
2022-12-20T02:07:42.665Z,25.86
2022-12-20T02:11:15.556Z,26.18
2022-12-20T02:14:49.359Z,25.88
2022-12-20T02:18:19.261Z,25.00
2022-12-20T02:21:42.058Z,24.07
2022-12-20T02:25:28.638Z,24.66
2022-12-20T02:29:09.980Z,24.86
2022-12-20T02:32:27.712Z,24.07
2022-12-20T02:35:37.612Z,24.53
2022-12-20T02:38:43.319Z,24.68
2022-12-20T02:41:58.488Z,24.49
2022-12-20T02:45:20.827Z,24.16
2022-12-20T02:48:37.054Z,24.88
2022-12-20T02:51:50.200Z,24.10
2022-12-20T02:54:58.599Z,25.28
2022-12-20T02:58:16.767Z,25.03
2022-12-20T03:01:31.744Z,25.82
2022-12-20T03:04:45.094Z,24.30
2022-12-20T03:07:52.220Z,24.46
2022-12-20T03:11:00.292Z,24.62
2022-12-20T03:14:08.005Z,23.84
2022-12-20T03:17:14.912Z,24.54
2022-12-20T03:20:24.095Z,24.76
2022-12-20T03:23:29.754Z,25.38
2022-12-20T03:26:36.694Z,25.52
2022-12-20T03:29:42.190Z,26.17
2022-12-20T03:32:48.740Z,25.40
2022-12-20T03:35:57.184Z,26.35
2022-12-20T03:39:04.429Z,25.93
2022-12-20T03:42:14.014Z,26.99
2022-12-20T03:45:20.738Z,27.19
2022-12-20T03:48:26.969Z,26.66
2022-12-20T03:51:36.079Z,27.42
2022-12-20T03:54:41.873Z,27.65
2022-12-20T03:58:00.144Z,27.92
2022-12-20T04:01:28.022Z,29.69
2022-12-20T04:04:35.437Z,28.00
2022-12-20T04:07:43.731Z,29.33
2022-12-20T04:11:02.569Z,32.99
2022-12-20T04:14:12.672Z,29.88
2022-12-20T04:17:19.259Z,28.69
2022-12-20T04:20:25.291Z,29.08
2022-12-20T04:23:46.831Z,28.58
2022-12-20T04:26:52.414Z,28.86
2022-12-20T04:29:58.997Z,28.71
2022-12-20T04:33:04.928Z,29.29
2022-12-20T04:36:12.716Z,29.24
2022-12-20T04:39:22.156Z,30.53
2022-12-20T04:42:50.720Z,30.84
2022-12-20T04:45:59.379Z,31.54
2022-12-20T04:49:06.305Z,31.76
2022-12-20T04:52:27.168Z,33.36
2022-12-20T04:55:40.877Z,30.99
2022-12-20T04:58:46.794Z,31.84
2022-12-20T05:01:53.185Z,30.74
2022-12-20T05:05:16.397Z,31.79
2022-12-20T05:08:29.107Z,30.40
2022-12-20T05:11:37.363Z,30.49
2022-12-20T05:14:49.648Z,30.09
2022-12-20T05:18:00.069Z,28.64
2022-12-20T05:21:27.186Z,29.58
2022-12-20T05:24:47.351Z,29.16
2022-12-20T05:28:09.344Z,27.20
2022-12-20T05:31:15.972Z,27.74
2022-12-20T05:34:23.942Z,28.20
2022-12-20T05:37:32.541Z,27.55
2022-12-20T05:40:51.986Z,28.65
2022-12-20T05:44:00.980Z,29.50
2022-12-20T05:47:09.204Z,30.37
2022-12-20T05:50:20.325Z,30.43
2022-12-20T05:53:45.319Z,31.75
2022-12-20T05:56:53.627Z,35.75
2022-12-20T06:00:11.266Z,33.12
2022-12-20T06:03:22.709Z,34.45
2022-12-20T06:06:30.106Z,31.26
2022-12-20T06:09:36.841Z,30.94
2022-12-20T06:12:50.853Z,32.33
2022-12-20T06:16:00.657Z,32.42
2022-12-20T06:19:07.187Z,30.32
2022-12-20T06:22:13.665Z,31.05
2022-12-20T06:25:27.995Z,31.95
2022-12-20T06:28:33.795Z,33.36
2022-12-20T06:31:42.808Z,32.87
2022-12-20T06:34:48.546Z,32.01
2022-12-20T06:37:56.625Z,32.11
2022-12-20T06:41:02.323Z,31.64
2022-12-20T06:44:09.279Z,33.60
2022-12-20T06:47:17.433Z,34.10
2022-12-20T06:50:23.718Z,35.20
2022-12-20T06:53:31.706Z,33.77
2022-12-20T06:56:41.758Z,31.81
2022-12-20T06:59:49.671Z,34.79
2022-12-20T07:02:58.690Z,35.15
2022-12-20T07:06:04.422Z,39.57
2022-12-20T07:09:10.925Z,35.11
2022-12-20T07:12:16.490Z,33.52
2022-12-20T07:15:22.915Z,32.79
2022-12-20T07:18:31.578Z,32.55
2022-12-20T07:21:38.746Z,33.15
2022-12-20T07:24:44.238Z,32.62
2022-12-20T07:27:51.724Z,36.25
2022-12-20T07:30:58.148Z,34.95
2022-12-20T07:34:07.034Z,34.51
2022-12-20T07:37:13.197Z,32.80
2022-12-20T07:40:20.327Z,33.20
2022-12-20T07:43:26.020Z,34.50
2022-12-20T07:46:34.861Z,36.05
2022-12-20T07:49:43.084Z,34.04
2022-12-20T07:52:53.714Z,35.11
2022-12-20T07:56:05.464Z,36.22
2022-12-20T07:59:17.074Z,35.30
2022-12-20T08:02:30.493Z,36.83
2022-12-20T08:05:46.355Z,35.78
2022-12-20T08:09:00.075Z,35.45
2022-12-20T08:12:07.311Z,34.26
2022-12-20T08:15:14.065Z,33.99
2022-12-20T08:18:20.323Z,33.80
2022-12-20T08:21:29.301Z,33.08
2022-12-20T08:24:37.745Z,33.70
2022-12-20T08:27:43.473Z,34.26
2022-12-20T08:30:50.079Z,33.31
2022-12-20T08:33:59.124Z,35.59
2022-12-20T08:37:14.782Z,35.21
2022-12-20T08:40:21.935Z,34.40
2022-12-20T08:43:28.160Z,34.85
2022-12-20T08:46:33.922Z,36.00
2022-12-20T08:49:47.181Z,34.24
2022-12-20T08:52:55.965Z,34.71
2022-12-20T08:56:08.531Z,35.32
2022-12-20T08:59:14.209Z,34.04
2022-12-20T09:02:20.724Z,33.13
2022-12-20T09:05:26.518Z,32.01
2022-12-20T09:08:36.158Z,31.98
2022-12-20T09:11:41.968Z,31.98
2022-12-20T09:14:48.434Z,33.53
2022-12-20T09:17:53.854Z,32.17
2022-12-20T09:21:03.975Z,30.91
2022-12-20T09:24:14.499Z,31.99
2022-12-20T09:27:21.210Z,30.91
2022-12-20T09:30:27.403Z,30.91
2022-12-20T09:33:36.704Z,32.30
2022-12-20T09:36:42.527Z,32.79
2022-12-20T09:39:53.077Z,33.92
2022-12-20T09:42:59.499Z,33.21
2022-12-20T09:46:07.182Z,35.35
2022-12-20T09:49:21.155Z,35.50
2022-12-20T09:53:03.436Z,34.34
2022-12-20T09:56:26.883Z,36.59
2022-12-20T09:59:41.278Z,50.77
2022-12-20T10:03:10.094Z,38.14
2022-12-20T10:06:35.147Z,40.12
2022-12-20T10:10:30.972Z,39.22
2022-12-20T10:14:06.125Z,40.75
2022-12-20T10:17:32.420Z,34.20
2022-12-20T10:21:01.041Z,37.77
2022-12-20T10:24:15.485Z,34.61
2022-12-20T10:27:25.459Z,35.44
2022-12-20T10:30:37.085Z,32.95
2022-12-20T10:33:45.360Z,34.00
2022-12-20T10:37:16.549Z,34.27
2022-12-20T10:41:01.496Z,36.11
2022-12-20T10:44:04.670Z,37.04
2022-12-20T10:47:40.906Z,33.90
2022-12-20T10:50:47.266Z,41.10
2022-12-20T10:54:00.130Z,37.16
2022-12-20T10:57:21.157Z,50.26
2022-12-20T11:00:34.043Z,50.01
2022-12-20T11:03:56.125Z,75.83
2022-12-20T11:07:06.095Z,45.83
2022-12-20T11:10:24.537Z,42.93
2022-12-20T11:13:31.352Z,52.13
2022-12-20T11:16:43.247Z,52.47
2022-12-20T11:20:26.735Z,46.66
2022-12-20T11:23:45.320Z,50.52
2022-12-20T11:27:19.358Z,33.52
2022-12-20T11:30:35.685Z,42.62
2022-12-20T11:34:20.947Z,32.86
2022-12-20T11:37:34.474Z,36.91
2022-12-20T11:40:56.044Z,34.76
2022-12-20T11:44:26.328Z,34.53
2022-12-20T11:48:04.807Z,53.69
2022-12-20T11:51:27.178Z,37.55
2022-12-20T11:54:46.790Z,34.08
2022-12-20T11:58:21.147Z,39.68
2022-12-20T12:01:38.055Z,39.94
2022-12-20T12:04:54.091Z,35.83
2022-12-20T12:08:18.334Z,36.70
2022-12-20T12:12:05.729Z,34.44
2022-12-20T12:15:20.806Z,34.07
2022-12-20T12:18:33.565Z,37.29
2022-12-20T12:21:51.510Z,35.48
2022-12-20T12:25:04.762Z,46.22
2022-12-20T12:28:17.688Z,36.21
2022-12-20T12:31:35.854Z,33.59
2022-12-20T12:35:11.205Z,35.48
2022-12-20T12:39:02.307Z,37.97
2022-12-20T12:42:53.154Z,43.39
2022-12-20T12:46:11.025Z,40.16
2022-12-20T12:49:26.915Z,39.10
2022-12-20T12:52:52.059Z,41.80
2022-12-20T12:56:19.420Z,40.24
2022-12-20T12:59:48.583Z,43.16
2022-12-20T13:02:59.272Z,38.47
2022-12-20T13:07:01.577Z,39.34
2022-12-20T13:11:01.295Z,38.85
2022-12-20T13:14:54.425Z,39.50
2022-12-20T13:18:04.039Z,38.58
2022-12-20T13:21:39.496Z,67.06
2022-12-20T13:25:00.346Z,50.53
2022-12-20T13:28:48.663Z,209.49
2022-12-20T13:31:58.009Z,194.83
2022-12-20T13:35:04.523Z,96.48
2022-12-20T13:38:54.786Z,92.56
2022-12-20T13:42:34.007Z,82.35
2022-12-20T13:45:49.146Z,100.93
2022-12-20T13:49:04.645Z,52.31
2022-12-20T13:52:28.030Z,40.94
2022-12-20T13:55:42.770Z,38.08
2022-12-20T13:58:50.321Z,38.30
2022-12-20T14:02:01.570Z,40.85
2022-12-20T14:05:23.520Z,67.64
2022-12-20T14:08:36.096Z,63.40
2022-12-20T14:11:50.668Z,42.67
2022-12-20T14:14:57.746Z,39.26
2022-12-20T14:18:19.258Z,42.10
2022-12-20T14:21:29.578Z,40.97
2022-12-20T14:24:39.407Z,44.45
2022-12-20T14:27:45.683Z,41.81
2022-12-20T14:30:52.693Z,41.89
2022-12-20T14:34:10.687Z,46.19
2022-12-20T14:37:41.443Z,43.00
2022-12-20T14:40:53.626Z,40.34
2022-12-20T14:44:16.087Z,44.48
2022-12-20T14:47:30.378Z,46.06
2022-12-20T14:50:41.047Z,46.98
2022-12-20T14:53:56.055Z,47.60
2022-12-20T14:57:03.287Z,88.65
2022-12-20T15:00:24.209Z,50.23
2022-12-20T15:03:32.111Z,45.17
2022-12-20T15:06:58.430Z,42.66
2022-12-20T15:10:08.970Z,54.66
2022-12-20T15:13:18.246Z,61.76
2022-12-20T15:16:28.112Z,47.78
2022-12-20T15:19:38.891Z,42.14
2022-12-20T15:22:48.673Z,40.95
